createdAt,value
2022-08-16T00:02:56.195Z,26.0
2022-08-16T00:08:04.882Z,27.9
2022-08-16T00:13:09.182Z,25.5
2022-08-16T00:18:05.653Z,24.4
2022-08-16T00:23:24.522Z,21.7
2022-08-16T00:28:28.703Z,22.5
2022-08-16T00:33:59.037Z,22.8
2022-08-16T00:38:43.392Z,30.4
2022-08-16T00:43:47.744Z,28.1
2022-08-16T00:48:54.138Z,28.5
2022-08-16T00:54:00.678Z,22.4
2022-08-16T00:59:07.116Z,20.8
2022-08-16T01:04:29.176Z,26.5
2022-08-16T01:09:47.964Z,24.6
2022-08-16T01:14:29.928Z,21.5
2022-08-16T01:19:57.145Z,30.7
2022-08-16T01:25:03.085Z,29.2
2022-08-16T01:29:58.609Z,21.5
2022-08-16T01:34:53.647Z,29.7
2022-08-16T01:39:58.436Z,22.4
2022-08-16T01:45:04.750Z,24.3
2022-08-16T01:50:42.184Z,27.5
2022-08-16T01:55:41.637Z,22.8
2022-08-16T02:00:29.328Z,21.8
2022-08-16T02:05:52.106Z,21.7
2022-08-16T02:10:36.981Z,21.1
2022-08-16T02:15:43.917Z,21.5
2022-08-16T02:20:49.920Z,21.5
2022-08-16T02:25:56.364Z,29.6
2022-08-16T02:31:02.799Z,25.9
2022-08-16T02:36:14.055Z,19.5
2022-08-16T02:41:15.572Z,22.1
2022-08-16T02:46:29.889Z,23.3
2022-08-16T02:51:52.600Z,22.5
2022-08-16T02:56:35.035Z,24.2
2022-08-16T03:01:41.588Z,23.6
2022-08-16T03:07:11.842Z,24.3
2022-08-16T03:12:16.545Z,21.7
2022-08-16T03:17:01.856Z,21.9
2022-08-16T03:22:30.973Z,24.1
2022-08-16T03:27:13.400Z,23.2
2022-08-16T03:32:19.782Z,26.2
2022-08-16T03:37:26.163Z,25.8
2022-08-16T03:43:18.466Z,24.7
2022-08-16T03:47:59.792Z,31.5
2022-08-16T03:52:45.492Z,21.7
2022-08-16T03:57:52.239Z,22.5
2022-08-16T04:02:58.119Z,28.8
2022-08-16T04:08:23.486Z,23.6
2022-08-16T04:13:20.459Z,25.6
2022-08-16T04:18:41.349Z,30.7
2022-08-16T04:23:23.689Z,22.2
2022-08-16T04:28:54.268Z,22.3
2022-08-16T04:34:00.504Z,24.2
2022-08-16T04:38:43.047Z,27.0
2022-08-16T04:43:49.532Z,23.9
2022-08-16T04:49:19.985Z,20.7
2022-08-16T04:54:02.297Z,26.8
2022-08-16T04:59:32.722Z,28.8
2022-08-16T05:04:35.186Z,29.5
2022-08-16T05:09:23.136Z,20.7
2022-08-16T05:14:45.721Z,32.6
2022-08-16T05:19:35.861Z,22.3
2022-08-16T05:24:40.952Z,21.3
2022-08-16T05:30:00.931Z,28.2
2022-08-16T05:35:14.035Z,27.6
2022-08-16T05:40:57.258Z,19.5
2022-08-16T05:45:07.482Z,26.0
2022-08-16T05:50:03.853Z,25.4
2022-08-16T05:56:51.422Z,22.2
2022-08-16T06:00:26.679Z,19.1
2022-08-16T06:05:36.230Z,22.9
2022-08-16T06:10:32.402Z,18.8
2022-08-16T06:15:59.929Z,19.5
2022-08-16T06:20:55.582Z,20.4
2022-08-16T06:26:59.481Z,19.6
2022-08-16T06:31:06.094Z,22.6
2022-08-16T06:36:14.101Z,20.4
2022-08-16T06:41:18.862Z,28.1
2022-08-16T06:46:15.223Z,19.5
2022-08-16T06:51:52.510Z,21.2
2022-08-16T06:56:39.639Z,27.2
2022-08-16T07:01:53.716Z,23.0
2022-08-16T07:07:12.497Z,19.2
2022-08-16T07:12:03.266Z,17.6
2022-08-16T07:17:08.350Z,19.3
2022-08-16T07:22:39.223Z,17.8
2022-08-16T07:27:19.795Z,21.9
2022-08-16T07:32:31.748Z,22.8
2022-08-16T07:42:45.526Z,22.5
2022-08-16T07:47:52.160Z,19.6
2022-08-16T07:53:18.590Z,20.9
2022-08-16T07:58:04.922Z,15.9
2022-08-16T08:03:36.139Z,22.9
2022-08-16T08:08:49.108Z,17.5
2022-08-16T08:13:31.015Z,17.0
2022-08-16T08:19:42.784Z,16.0
2022-08-16T08:28:33.965Z,20.1
2022-08-16T08:33:51.819Z,22.5
2022-08-16T08:39:13.131Z,17.9
2022-08-16T08:43:54.346Z,15.9
2022-08-16T08:49:02.362Z,16.8
2022-08-16T08:54:09.262Z,14.5
2022-08-16T08:59:43.523Z,14.7
2022-08-16T09:09:37.817Z,23.2
2022-08-16T09:15:03.258Z,13.5
2022-08-16T09:19:40.768Z,12.6
2022-08-16T09:24:59.826Z,13.8
2022-08-16T09:30:33.670Z,12.1
2022-08-16T09:35:16.588Z,20.2
2022-08-16T09:40:43.986Z,14.4
2022-08-16T09:45:25.493Z,17.8
2022-08-16T09:50:22.551Z,11.1
2022-08-16T09:55:44.245Z,12.7
2022-08-16T10:00:44.360Z,14.7
2022-08-16T10:07:15.051Z,12.6
2022-08-16T10:11:24.741Z,14.8
2022-08-16T10:16:07.883Z,11.5
2022-08-16T10:21:00.163Z,10.8
2022-08-16T10:27:16.247Z,12.9
2022-08-16T10:31:43.500Z,10.1
2022-08-16T10:36:39.278Z,12.1
2022-08-16T10:42:20.685Z,15.8
2022-08-16T10:47:30.432Z,10.7
2022-08-16T10:57:41.410Z,9.7
2022-08-16T11:02:58.614Z,10.6
2022-08-16T11:07:45.420Z,12.2
2022-08-16T11:13:21.035Z,11.3
2022-08-16T11:23:13.445Z,12.3
2022-08-16T11:34:20.812Z,9.7
2022-08-16T11:38:51.974Z,11.8
2022-08-16T11:43:41.984Z,11.5
2022-08-16T11:49:14.367Z,11.1
2022-08-16T11:53:56.365Z,12.7
2022-08-16T11:59:02.922Z,10.0
2022-08-16T12:04:09.416Z,12.3
2022-08-16T12:09:21.321Z,10.7
2022-08-16T12:14:27.719Z,10.5
2022-08-16T12:19:33.676Z,11.3
2022-08-16T12:25:00.696Z,13.5
2022-08-16T12:30:21.301Z,12.1
2022-08-16T12:34:53.527Z,20.0
2022-08-16T12:39:59.953Z,12.5
2022-08-16T12:45:09.819Z,19.7
2022-08-16T12:50:06.191Z,12.1
2022-08-16T12:55:14.345Z,14.3
2022-08-16T13:06:01.969Z,12.3
2022-08-16T13:10:45.295Z,11.3
2022-08-16T13:15:57.191Z,12.5
2022-08-16T13:21:23.329Z,11.6
2022-08-16T13:26:07.939Z,10.6
2022-08-16T13:31:14.254Z,19.3
2022-08-16T13:41:30.311Z,11.4
2022-08-16T13:46:32.954Z,15.7
2022-08-16T13:52:23.787Z,11.8
2022-08-16T13:57:53.395Z,21.6
2022-08-16T14:03:01.903Z,12.0
2022-08-16T14:07:44.156Z,11.1
2022-08-16T14:12:54.509Z,11.3
2022-08-16T14:18:21.157Z,13.2
2022-08-16T14:23:03.253Z,21.3
2022-08-16T14:28:09.857Z,11.5
2022-08-16T14:34:29.942Z,11.6
2022-08-16T14:38:23.650Z,11.0
2022-08-16T14:44:06.050Z,16.4
2022-08-16T14:49:03.459Z,15.8
2022-08-16T14:54:19.958Z,12.3
2022-08-16T14:59:16.340Z,12.4
2022-08-16T15:04:48.062Z,15.0
2022-08-16T15:10:03.588Z,11.4
2022-08-16T15:14:36.042Z,11.9
2022-08-16T15:19:52.444Z,16.3
2022-08-16T15:25:18.878Z,14.8
2022-08-16T15:30:56.706Z,11.5
2022-08-16T15:35:03.425Z,14.5
2022-08-16T15:40:32.397Z,19.3
2022-08-16T15:46:03.838Z,12.7
2022-08-16T15:51:11.134Z,22.0
2022-08-16T15:56:21.530Z,12.8
2022-08-16T16:01:14.036Z,16.9
2022-08-16T16:06:30.323Z,12.5
2022-08-16T16:11:36.703Z,13.6
2022-08-16T16:17:07.151Z,13.8
2022-08-16T16:21:49.571Z,13.9
2022-08-16T16:26:45.941Z,13.0
2022-08-16T16:32:02.350Z,12.0
2022-08-16T16:37:09.986Z,13.6
2022-08-16T16:42:35.285Z,14.1
2022-08-16T16:48:45.857Z,13.4
2022-08-16T16:52:31.405Z,13.9
2022-08-16T16:57:55.754Z,13.4
2022-08-16T17:02:49.714Z,14.6
2022-08-16T17:07:48.681Z,14.7
2022-08-16T17:13:18.912Z,14.5
2022-08-16T17:18:01.893Z,14.6
2022-08-16T17:23:07.792Z,14.1
2022-08-16T17:28:58.867Z,13.3
2022-08-16T17:38:39.038Z,13.3
2022-08-16T17:39:27.126Z,14.0
2022-08-16T17:43:23.258Z,16.4
2022-08-16T17:48:39.686Z,15.0
2022-08-16T17:53:50.442Z,18.5
2022-08-16T18:00:05.793Z,15.4
2022-08-16T18:04:09.165Z,19.2
2022-08-16T18:09:06.925Z,15.3
2022-08-16T18:14:50.929Z,20.8
2022-08-16T18:19:40.383Z,14.5
2022-08-16T18:24:16.700Z,13.6
2022-08-16T18:29:33.103Z,18.9
2022-08-16T18:34:39.618Z,13.5
2022-08-16T18:40:10.630Z,16.5
2022-08-16T18:44:52.892Z,15.3
2022-08-16T18:49:59.364Z,22.7
2022-08-16T18:55:14.055Z,15.2
2022-08-16T19:00:12.218Z,16.9
2022-08-16T19:05:18.588Z,15.2
2022-08-16T19:10:39.021Z,15.9
2022-08-16T19:16:15.487Z,15.8
2022-08-16T19:20:37.808Z,17.4
2022-08-16T19:25:48.653Z,16.8
2022-08-16T19:30:54.803Z,16.0
2022-08-16T19:42:53.924Z,22.9
2022-08-16T19:46:49.205Z,15.9
2022-08-16T19:52:15.615Z,18.0
2022-08-16T19:56:51.942Z,25.6
2022-08-16T20:01:58.392Z,28.4
2022-08-16T20:07:14.789Z,28.2
2022-08-16T20:12:21.184Z,29.8
2022-08-16T20:17:50.826Z,18.1
2022-08-16T20:22:54.743Z,17.8
2022-08-16T20:27:44.857Z,18.0
2022-08-16T20:32:51.551Z,20.1
2022-08-16T20:37:57.755Z,23.2
2022-08-16T20:43:28.187Z,20.8
2022-08-16T20:48:10.585Z,19.5
2022-08-16T20:53:37.349Z,19.7
2022-08-16T20:58:47.507Z,17.4
2022-08-16T21:03:51.450Z,25.3
2022-08-16T21:08:51.914Z,23.6
2022-08-16T21:13:44.181Z,21.4
2022-08-16T21:18:50.550Z,19.8
2022-08-16T21:24:41.016Z,24.8
2022-08-16T21:29:03.296Z,19.6
2022-08-16T21:33:59.660Z,27.1
2022-08-16T21:39:16.195Z,29.9
2022-08-16T21:44:12.585Z,19.7
2022-08-16T21:49:53.022Z,28.5
2022-08-16T21:54:35.369Z,19.3
2022-08-16T21:59:41.827Z,25.1
2022-08-16T22:04:52.160Z,18.9
2022-08-16T22:09:56.221Z,34.7
2022-08-16T22:14:51.065Z,19.6
2022-08-16T22:20:27.548Z,22.1
2022-08-16T22:25:37.930Z,26.7
2022-08-16T22:30:20.290Z,19.5
2022-08-16T22:35:26.636Z,21.7
2022-08-16T22:40:33.027Z,31.4
2022-08-16T22:45:39.485Z,21.6
2022-08-16T22:50:45.893Z,25.6
2022-08-16T22:56:54.463Z,26.1
2022-08-16T23:00:58.732Z,24.5
2022-08-16T23:06:05.134Z,27.7
2022-08-16T23:11:13.071Z,25.6
2022-08-16T23:16:19.448Z,22.2
2022-08-16T23:21:31.426Z,28.0
2022-08-16T23:26:46.783Z,28.6
2022-08-16T23:31:40.184Z,23.5
2022-08-16T23:36:46.579Z,23.0
2022-08-16T23:42:53.575Z,35.3
2022-08-16T23:47:34.405Z,28.6
2022-08-16T23:52:55.815Z,23.3
2022-08-16T23:58:11.349Z,26.1
